createdAt,value
2017-12-20T00:01:29.792Z,15.23
2017-12-20T00:03:57.292Z,13.33
2017-12-20T00:06:24.968Z,13.67
2017-12-20T00:08:52.444Z,14.23
2017-12-20T00:11:19.992Z,14.30
2017-12-20T00:13:47.471Z,14.00
2017-12-20T00:16:14.993Z,12.93
2017-12-20T00:18:42.467Z,13.27
2017-12-20T00:21:09.925Z,13.80
2017-12-20T00:23:37.401Z,13.37
2017-12-20T00:26:05.119Z,13.70
2017-12-20T00:28:32.648Z,14.70
2017-12-20T00:31:00.864Z,13.17
2017-12-20T00:33:28.456Z,13.30
2017-12-20T00:35:55.960Z,12.23
2017-12-20T00:38:23.470Z,12.63
2017-12-20T00:40:50.889Z,12.07
2017-12-20T00:43:18.806Z,12.37
2017-12-20T00:45:46.268Z,12.93
2017-12-20T00:48:13.813Z,10.77
2017-12-20T00:50:41.258Z,11.67
2017-12-20T00:53:08.774Z,11.03
2017-12-20T00:55:36.236Z,10.03
2017-12-20T00:58:03.697Z,12.07
2017-12-20T01:00:31.165Z,10.90
2017-12-20T01:02:58.770Z,10.43
2017-12-20T01:05:26.513Z,11.00
2017-12-20T01:07:54.125Z,9.93
2017-12-20T01:10:22.235Z,9.43
2017-12-20T01:12:49.745Z,11.40
2017-12-20T01:15:17.245Z,11.43
2017-12-20T01:17:44.676Z,10.33
2017-12-20T01:20:12.136Z,9.60
2017-12-20T01:22:39.696Z,10.30
2017-12-20T01:25:07.543Z,11.20
2017-12-20T01:27:36.419Z,10.13
2017-12-20T01:30:03.963Z,9.20
2017-12-20T01:32:31.544Z,11.00
2017-12-20T01:34:59.173Z,10.27
2017-12-20T01:37:26.795Z,9.77
2017-12-20T01:39:54.585Z,10.43
2017-12-20T01:42:22.508Z,8.83
2017-12-20T01:44:49.967Z,10.77
2017-12-20T01:47:17.454Z,9.17
2017-12-20T01:49:44.922Z,9.57
2017-12-20T01:52:12.354Z,9.90
2017-12-20T01:54:39.764Z,10.40
2017-12-20T01:57:07.245Z,9.80
2017-12-20T01:59:34.672Z,9.60
2017-12-20T02:02:02.500Z,8.67
2017-12-20T02:04:30.114Z,10.50
2017-12-20T02:06:58.454Z,10.40
2017-12-20T02:09:26.132Z,9.33
2017-12-20T02:11:53.604Z,10.47
2017-12-20T02:14:21.067Z,9.70
2017-12-20T02:16:48.523Z,10.00
2017-12-20T02:19:16.101Z,9.20
2017-12-20T02:21:43.552Z,8.20
2017-12-20T02:24:11.023Z,8.90
2017-12-20T02:26:38.664Z,10.23
2017-12-20T02:29:06.131Z,8.50
2017-12-20T02:31:33.637Z,9.10
2017-12-20T02:34:01.756Z,9.33
2017-12-20T02:36:29.348Z,8.80
2017-12-20T02:38:57.481Z,8.70
2017-12-20T02:41:25.151Z,9.93
2017-12-20T02:43:52.601Z,8.80
2017-12-20T02:46:20.127Z,9.37
2017-12-20T02:48:47.649Z,8.77
2017-12-20T02:51:16.342Z,9.27
2017-12-20T02:53:43.804Z,8.03
2017-12-20T02:56:11.271Z,7.30
2017-12-20T02:58:38.752Z,7.33
2017-12-20T03:01:06.197Z,7.50
2017-12-20T03:03:33.854Z,7.57
2017-12-20T03:06:01.433Z,5.60
2017-12-20T03:08:28.859Z,7.13
2017-12-20T03:10:56.413Z,6.60
2017-12-20T03:13:23.879Z,5.53
2017-12-20T03:15:51.407Z,6.57
2017-12-20T03:18:19.525Z,6.67
2017-12-20T03:20:47.667Z,6.57
2017-12-20T03:23:15.204Z,6.80
2017-12-20T03:25:42.880Z,7.27
2017-12-20T03:28:10.932Z,6.97
2017-12-20T03:30:38.469Z,7.10
2017-12-20T03:33:06.141Z,6.83
2017-12-20T03:35:33.588Z,5.73
2017-12-20T03:38:01.049Z,6.30
2017-12-20T03:40:28.499Z,10.10
2017-12-20T03:42:56.371Z,13.57
2017-12-20T03:45:25.167Z,10.10
2017-12-20T03:47:52.606Z,8.67
2017-12-20T03:50:20.080Z,7.50
2017-12-20T03:52:47.961Z,7.07
2017-12-20T03:55:15.443Z,7.03
2017-12-20T03:57:42.918Z,6.87
2017-12-20T04:00:10.399Z,7.73
2017-12-20T04:02:37.867Z,6.50
2017-12-20T04:05:05.290Z,6.43
2017-12-20T04:07:32.706Z,6.87
2017-12-20T04:10:00.131Z,5.90
2017-12-20T04:12:27.880Z,6.20
2017-12-20T04:14:55.645Z,7.40
2017-12-20T04:17:24.179Z,6.63
2017-12-20T04:19:52.177Z,7.03
2017-12-20T04:22:20.170Z,7.47
2017-12-20T04:24:48.028Z,6.20
2017-12-20T04:27:15.919Z,6.67
2017-12-20T04:29:43.502Z,6.60
2017-12-20T04:32:10.968Z,7.33
2017-12-20T04:34:38.444Z,7.00
2017-12-20T04:37:05.943Z,6.60
2017-12-20T04:39:33.838Z,7.63
2017-12-20T04:42:01.758Z,8.00
2017-12-20T04:44:29.230Z,8.07
2017-12-20T04:46:56.703Z,7.67
2017-12-20T04:49:24.565Z,7.60
2017-12-20T04:51:52.020Z,7.90
2017-12-20T04:54:19.492Z,6.70
2017-12-20T04:56:47.108Z,6.90
2017-12-20T04:59:14.599Z,7.30
2017-12-20T05:01:42.063Z,7.80
2017-12-20T05:04:09.532Z,7.50
2017-12-20T05:06:37.006Z,6.60
2017-12-20T05:09:04.504Z,7.70
2017-12-20T05:11:31.949Z,8.70
2017-12-20T05:13:59.791Z,7.33
2017-12-20T05:16:27.671Z,7.70
2017-12-20T05:18:55.283Z,7.20
2017-12-20T05:21:22.707Z,8.53
2017-12-20T05:23:50.732Z,7.70
2017-12-20T05:26:18.387Z,8.17
2017-12-20T05:28:45.893Z,8.93
2017-12-20T05:31:13.412Z,7.37
2017-12-20T05:33:41.189Z,7.67
2017-12-20T05:36:08.918Z,7.27
2017-12-20T05:38:36.814Z,7.60
2017-12-20T05:41:04.897Z,7.70
2017-12-20T05:43:33.215Z,6.87
2017-12-20T05:46:00.727Z,8.30
2017-12-20T05:48:28.738Z,7.47
2017-12-20T05:50:56.371Z,7.70
2017-12-20T05:53:24.306Z,6.70
2017-12-20T05:55:51.985Z,7.70
2017-12-20T05:58:19.566Z,6.70
2017-12-20T06:00:47.405Z,7.23
2017-12-20T06:03:14.876Z,7.80
2017-12-20T06:05:42.728Z,7.83
2017-12-20T06:08:10.155Z,7.80
2017-12-20T06:10:37.625Z,7.43
2017-12-20T06:13:05.179Z,7.77
2017-12-20T06:15:32.631Z,7.83
2017-12-20T06:18:00.112Z,8.90
2017-12-20T06:20:27.563Z,8.77
2017-12-20T06:22:55.029Z,8.80
2017-12-20T06:25:22.472Z,8.37
2017-12-20T06:27:50.506Z,7.30
2017-12-20T06:30:18.934Z,7.60
2017-12-20T06:32:46.784Z,7.57
2017-12-20T06:35:14.862Z,7.00
2017-12-20T06:37:42.274Z,8.60
2017-12-20T06:40:09.736Z,8.40
2017-12-20T06:42:37.179Z,8.60
2017-12-20T06:45:04.731Z,8.80
2017-12-20T06:47:32.729Z,8.37
2017-12-20T06:50:00.376Z,8.20
2017-12-20T06:52:28.222Z,8.37
2017-12-20T06:54:55.756Z,8.17
2017-12-20T06:57:23.347Z,7.83
2017-12-20T06:59:50.866Z,8.20
2017-12-20T07:02:18.356Z,8.20
2017-12-20T07:04:45.778Z,8.07
2017-12-20T07:07:13.527Z,7.60
2017-12-20T07:09:41.009Z,8.20
2017-12-20T07:12:08.590Z,8.80
2017-12-20T07:14:36.351Z,8.00
2017-12-20T07:17:04.190Z,8.67
2017-12-20T07:19:32.259Z,7.17
2017-12-20T07:22:00.253Z,7.90
2017-12-20T07:24:27.826Z,7.70
2017-12-20T07:26:55.268Z,7.33
2017-12-20T07:29:24.954Z,6.97
2017-12-20T07:31:52.810Z,7.33
2017-12-20T07:34:20.966Z,7.40
2017-12-20T07:36:48.697Z,7.53
2017-12-20T07:39:16.155Z,7.03
2017-12-20T07:41:43.675Z,6.80
2017-12-20T07:44:11.176Z,7.13
2017-12-20T07:46:38.614Z,7.03
2017-12-20T07:49:06.473Z,7.00
2017-12-20T07:51:34.320Z,5.97
2017-12-20T07:54:01.766Z,6.23
2017-12-20T07:56:29.217Z,6.90
2017-12-20T07:58:56.668Z,6.57
2017-12-20T08:01:24.071Z,6.30
2017-12-20T08:03:51.532Z,6.50
2017-12-20T08:06:18.971Z,6.13
2017-12-20T08:08:46.415Z,6.27
2017-12-20T08:11:13.921Z,6.33
2017-12-20T08:13:41.379Z,6.97
2017-12-20T08:16:09.829Z,6.07
2017-12-20T08:18:37.430Z,6.83
2017-12-20T08:21:05.540Z,6.00
2017-12-20T08:23:33.447Z,6.70
2017-12-20T08:26:00.924Z,7.43
2017-12-20T08:28:28.357Z,6.33
2017-12-20T08:30:55.828Z,7.10
2017-12-20T08:33:23.284Z,6.83
2017-12-20T08:35:50.777Z,6.93
2017-12-20T08:38:18.194Z,6.73
2017-12-20T08:40:45.667Z,7.67
2017-12-20T08:43:13.093Z,6.47
2017-12-20T08:45:41.018Z,6.40
2017-12-20T08:48:08.475Z,6.37
2017-12-20T08:50:35.877Z,6.17
2017-12-20T08:53:03.432Z,8.00
2017-12-20T08:55:30.896Z,7.60
2017-12-20T08:57:58.321Z,7.00
2017-12-20T09:00:25.776Z,8.53
2017-12-20T09:02:53.238Z,6.83
2017-12-20T09:05:20.717Z,8.33
2017-12-20T09:07:48.418Z,9.67
2017-12-20T09:10:16.397Z,8.10
2017-12-20T09:12:44.326Z,8.07
2017-12-20T09:15:11.765Z,7.43
2017-12-20T09:17:39.273Z,8.23
2017-12-20T09:20:06.716Z,8.17
2017-12-20T09:22:34.180Z,8.60
2017-12-20T09:25:01.600Z,7.23
2017-12-20T09:27:29.094Z,7.87
2017-12-20T09:29:56.542Z,7.30
2017-12-20T09:32:23.975Z,6.70
2017-12-20T09:34:51.809Z,6.90
2017-12-20T09:37:19.271Z,6.93
2017-12-20T09:39:46.700Z,6.60
2017-12-20T09:42:14.186Z,6.70
2017-12-20T09:44:42.206Z,7.67
2017-12-20T09:47:09.840Z,9.00
2017-12-20T09:49:37.262Z,7.40
2017-12-20T09:52:04.749Z,9.20
2017-12-20T09:54:32.804Z,6.50
2017-12-20T09:57:00.251Z,6.43
2017-12-20T09:59:28.080Z,7.23
2017-12-20T10:01:55.497Z,7.33
2017-12-20T10:04:22.924Z,5.70
2017-12-20T10:06:50.759Z,7.07
2017-12-20T10:09:18.186Z,6.00
2017-12-20T10:11:45.617Z,6.90
2017-12-20T10:14:13.546Z,6.10
2017-12-20T10:16:41.961Z,6.20
2017-12-20T10:19:09.826Z,8.43
2017-12-20T10:21:37.239Z,7.40
2017-12-20T10:24:04.724Z,7.30
2017-12-20T10:26:32.160Z,6.50
2017-12-20T10:28:59.620Z,6.90
2017-12-20T10:31:27.059Z,5.67
2017-12-20T10:33:54.496Z,6.23
2017-12-20T10:36:22.006Z,5.53
2017-12-20T10:38:49.493Z,6.20
2017-12-20T10:41:16.938Z,5.80
2017-12-20T10:43:44.384Z,6.07
2017-12-20T10:46:11.812Z,6.10
2017-12-20T10:48:40.678Z,6.80
2017-12-20T10:51:08.127Z,6.13
2017-12-20T10:53:35.636Z,7.40
2017-12-20T10:56:03.562Z,6.70
2017-12-20T10:58:31.000Z,6.87
2017-12-20T11:00:58.472Z,8.60
2017-12-20T11:03:25.927Z,7.70
2017-12-20T11:05:53.397Z,7.47
2017-12-20T11:08:20.904Z,7.77
2017-12-20T11:10:50.458Z,9.00
2017-12-20T11:13:17.994Z,7.73
2017-12-20T11:15:45.960Z,8.33
2017-12-20T11:18:13.408Z,7.50
2017-12-20T11:20:41.343Z,7.47
2017-12-20T11:23:08.926Z,8.30
2017-12-20T11:25:36.489Z,8.97
2017-12-20T11:28:04.108Z,7.53
2017-12-20T11:30:32.033Z,7.90
2017-12-20T11:32:59.661Z,7.00
2017-12-20T11:35:27.119Z,8.40
2017-12-20T11:37:54.620Z,7.37
2017-12-20T11:40:22.085Z,7.10
2017-12-20T11:42:49.750Z,6.37
2017-12-20T11:45:17.305Z,6.20
2017-12-20T11:47:44.826Z,6.40
2017-12-20T11:50:12.844Z,5.80
2017-12-20T11:52:40.460Z,9.50
2017-12-20T11:55:08.371Z,13.37
2017-12-20T11:57:36.224Z,7.70
2017-12-20T12:00:03.736Z,6.53
2017-12-20T12:02:31.235Z,6.43
2017-12-20T12:04:59.145Z,6.87
2017-12-20T12:07:26.638Z,7.23
2017-12-20T12:09:54.111Z,7.77
2017-12-20T12:12:22.056Z,7.17
2017-12-20T12:14:49.504Z,9.90
2017-12-20T12:17:16.963Z,8.53
2017-12-20T12:19:44.398Z,7.87
2017-12-20T12:22:11.938Z,7.20
2017-12-20T12:24:39.916Z,8.23
2017-12-20T12:27:07.806Z,7.50
2017-12-20T12:29:35.279Z,6.30
2017-12-20T12:32:02.794Z,7.00
2017-12-20T12:34:30.665Z,6.50
2017-12-20T12:36:58.829Z,7.27
2017-12-20T12:39:26.313Z,6.80
2017-12-20T12:41:53.762Z,6.80
2017-12-20T12:44:21.184Z,7.00
2017-12-20T12:46:48.645Z,7.80
2017-12-20T12:49:16.162Z,6.93
2017-12-20T12:51:43.701Z,6.53
2017-12-20T12:54:11.166Z,6.70
2017-12-20T12:56:39.021Z,5.63
2017-12-20T12:59:06.490Z,5.63
2017-12-20T13:01:33.932Z,6.30
2017-12-20T13:04:01.407Z,6.53
2017-12-20T13:06:28.987Z,6.73
2017-12-20T13:08:56.462Z,6.57
2017-12-20T13:11:23.969Z,6.40
2017-12-20T13:13:51.733Z,6.80
2017-12-20T13:16:19.172Z,6.70
2017-12-20T13:18:47.075Z,5.53
2017-12-20T13:21:14.525Z,5.90
2017-12-20T13:23:41.991Z,6.17
2017-12-20T13:26:09.786Z,5.53
2017-12-20T13:28:37.277Z,5.90
2017-12-20T13:31:04.749Z,5.20
2017-12-20T13:33:32.196Z,4.90
2017-12-20T13:35:59.674Z,5.33
2017-12-20T13:38:27.110Z,4.47
2017-12-20T13:40:54.652Z,5.10
2017-12-20T13:43:22.106Z,5.23
2017-12-20T13:45:49.566Z,4.17
2017-12-20T13:48:17.015Z,4.53
2017-12-20T13:50:45.040Z,5.20
2017-12-20T13:53:12.636Z,5.60
2017-12-20T13:55:40.517Z,4.30
2017-12-20T13:58:07.968Z,5.00
2017-12-20T14:00:35.906Z,5.03
2017-12-20T14:03:03.344Z,4.90
2017-12-20T14:05:30.810Z,5.60
2017-12-20T14:07:58.569Z,5.40
2017-12-20T14:10:26.088Z,7.23
2017-12-20T14:12:53.544Z,8.40
2017-12-20T14:15:21.486Z,8.23
2017-12-20T14:17:48.950Z,7.80
2017-12-20T14:20:16.576Z,8.20
2017-12-20T14:22:44.540Z,8.00
2017-12-20T14:25:12.463Z,9.90
2017-12-20T14:27:39.911Z,7.83
2017-12-20T14:30:07.387Z,9.23
2017-12-20T14:32:35.197Z,7.07
2017-12-20T14:35:03.019Z,7.30
2017-12-20T14:37:30.467Z,7.67
2017-12-20T14:39:58.017Z,8.40
2017-12-20T14:42:25.487Z,7.77
2017-12-20T14:44:52.943Z,6.87
2017-12-20T14:47:20.386Z,6.80
2017-12-20T14:49:47.869Z,6.77
2017-12-20T14:52:15.328Z,6.50
2017-12-20T14:54:42.765Z,6.93
2017-12-20T14:57:10.719Z,7.37
2017-12-20T14:59:39.036Z,7.80
2017-12-20T15:02:06.477Z,7.00
2017-12-20T15:04:34.327Z,6.67
2017-12-20T15:07:02.288Z,6.90
2017-12-20T15:09:29.715Z,7.20
2017-12-20T15:11:57.187Z,6.97
2017-12-20T15:14:24.622Z,7.70
2017-12-20T15:16:52.125Z,7.33
2017-12-20T15:19:19.641Z,6.97
2017-12-20T15:21:47.474Z,8.37
2017-12-20T15:24:14.914Z,9.47
2017-12-20T15:26:42.445Z,10.10
2017-12-20T15:29:10.257Z,8.30
2017-12-20T15:31:37.732Z,8.07
2017-12-20T15:34:05.705Z,9.17
2017-12-20T15:36:33.140Z,9.07
2017-12-20T15:39:00.616Z,8.60
2017-12-20T15:41:28.051Z,9.73
2017-12-20T15:43:55.521Z,9.63
2017-12-20T15:46:23.011Z,8.07
2017-12-20T15:48:50.636Z,8.47
2017-12-20T15:51:18.100Z,6.70
2017-12-20T15:53:45.564Z,6.90
2017-12-20T15:56:13.011Z,8.67
2017-12-20T15:58:41.121Z,7.60
2017-12-20T16:01:08.561Z,6.83
2017-12-20T16:03:36.047Z,7.93
2017-12-20T16:06:03.472Z,7.87
2017-12-20T16:08:30.962Z,8.10
2017-12-20T16:10:58.392Z,8.50
2017-12-20T16:13:25.812Z,7.60
2017-12-20T16:15:53.277Z,6.70
2017-12-20T16:18:20.736Z,7.07
2017-12-20T16:20:48.168Z,6.93
2017-12-20T16:23:15.628Z,7.40
2017-12-20T16:25:43.095Z,9.30
2017-12-20T16:28:10.501Z,8.40
2017-12-20T16:30:38.367Z,7.50
2017-12-20T16:33:06.276Z,7.70
2017-12-20T16:35:33.728Z,8.40
2017-12-20T16:38:01.159Z,8.20
2017-12-20T16:40:29.060Z,8.57
2017-12-20T16:42:56.503Z,8.20
2017-12-20T16:45:24.367Z,8.93
2017-12-20T16:47:51.815Z,7.60
2017-12-20T16:50:19.225Z,7.87
2017-12-20T16:52:46.662Z,8.40
2017-12-20T16:55:14.080Z,7.37
2017-12-20T16:57:41.560Z,7.33
2017-12-20T17:00:09.480Z,5.90
2017-12-20T17:02:36.941Z,6.47
2017-12-20T17:05:04.354Z,6.00
2017-12-20T17:07:33.212Z,7.70
2017-12-20T17:10:00.631Z,6.13
2017-12-20T17:12:28.055Z,6.33
2017-12-20T17:14:55.620Z,6.43
2017-12-20T17:17:23.096Z,7.07
2017-12-20T17:19:50.516Z,5.40
2017-12-20T17:22:18.149Z,6.27
2017-12-20T17:24:45.601Z,6.90
2017-12-20T17:27:13.488Z,6.17
2017-12-20T17:29:40.992Z,6.73
2017-12-20T17:32:08.559Z,6.00
2017-12-20T17:34:36.076Z,6.60
2017-12-20T17:37:03.608Z,6.97
2017-12-20T17:39:31.059Z,6.27
2017-12-20T17:41:58.576Z,7.07
2017-12-20T17:44:26.105Z,6.40
2017-12-20T17:46:53.566Z,6.97
2017-12-20T17:49:22.052Z,7.50
2017-12-20T17:51:49.500Z,7.40
2017-12-20T17:54:16.942Z,7.10
2017-12-20T17:56:44.402Z,7.80
2017-12-20T17:59:11.867Z,7.50
2017-12-20T18:01:39.427Z,7.70
2017-12-20T18:04:06.895Z,7.30
2017-12-20T18:06:34.516Z,7.87
2017-12-20T18:09:02.022Z,7.13
2017-12-20T18:11:29.502Z,8.40
2017-12-20T18:13:57.042Z,8.47
2017-12-20T18:16:26.037Z,7.17
2017-12-20T18:18:53.558Z,8.30
2017-12-20T18:21:21.031Z,9.00
2017-12-20T18:23:48.534Z,8.90
2017-12-20T18:26:16.009Z,9.97
2017-12-20T18:28:43.451Z,8.90
2017-12-20T18:31:10.899Z,9.90
2017-12-20T18:33:38.384Z,9.60
2017-12-20T18:36:05.862Z,9.33
2017-12-20T18:38:33.344Z,8.57
2017-12-20T18:41:01.294Z,9.20
2017-12-20T18:43:28.871Z,8.80
2017-12-20T18:45:56.375Z,8.80
2017-12-20T18:48:23.933Z,10.17
2017-12-20T18:50:52.413Z,9.83
2017-12-20T18:53:19.938Z,8.57
2017-12-20T18:55:47.467Z,9.00
2017-12-20T18:58:15.110Z,10.40
2017-12-20T19:00:42.532Z,9.00
2017-12-20T19:03:10.378Z,9.90
2017-12-20T19:05:37.871Z,9.77
2017-12-20T19:08:06.042Z,10.03
2017-12-20T19:10:33.603Z,10.40
2017-12-20T19:13:01.640Z,9.70
2017-12-20T19:15:29.109Z,10.77
2017-12-20T19:17:56.668Z,10.07
2017-12-20T19:20:24.146Z,11.47
2017-12-20T19:22:51.631Z,9.80
2017-12-20T19:25:19.137Z,9.03
2017-12-20T19:27:46.835Z,10.77
2017-12-20T19:30:14.288Z,10.73
2017-12-20T19:32:41.852Z,8.40
2017-12-20T19:35:09.316Z,9.43
2017-12-20T19:37:36.800Z,9.70
2017-12-20T19:40:04.258Z,11.83
2017-12-20T19:42:31.795Z,8.73
2017-12-20T19:44:59.458Z,10.20
2017-12-20T19:47:26.989Z,10.50
2017-12-20T19:49:55.540Z,9.67
2017-12-20T19:52:23.002Z,10.40
2017-12-20T19:54:50.437Z,11.33
2017-12-20T19:57:17.885Z,10.87
2017-12-20T19:59:45.399Z,11.00
2017-12-20T20:02:12.846Z,10.90
2017-12-20T20:04:40.573Z,9.73
2017-12-20T20:07:08.065Z,10.30
2017-12-20T20:09:35.600Z,12.23
2017-12-20T20:12:03.139Z,11.33
2017-12-20T20:14:30.640Z,14.20
2017-12-20T20:16:58.115Z,16.07
2017-12-20T20:19:25.561Z,15.00
2017-12-20T20:21:53.050Z,11.00
2017-12-20T20:24:20.507Z,10.40
2017-12-20T20:26:48.291Z,11.83
2017-12-20T20:29:15.727Z,11.03
2017-12-20T20:31:43.590Z,10.90
2017-12-20T20:34:11.098Z,11.20
2017-12-20T20:36:38.695Z,10.70
2017-12-20T20:39:06.261Z,11.20
2017-12-20T20:41:34.148Z,9.73
2017-12-20T20:44:01.702Z,10.57
2017-12-20T20:46:29.488Z,9.73
2017-12-20T20:48:56.975Z,9.73
2017-12-20T20:51:24.440Z,9.37
2017-12-20T20:53:51.983Z,10.87
2017-12-20T20:56:19.536Z,10.07
2017-12-20T20:58:47.003Z,11.13
2017-12-20T21:01:14.506Z,10.73
2017-12-20T21:03:42.309Z,10.33
2017-12-20T21:06:10.244Z,10.87
2017-12-20T21:08:37.858Z,11.10
2017-12-20T21:11:05.649Z,12.63
2017-12-20T21:13:33.151Z,9.17
2017-12-20T21:16:01.016Z,11.27
2017-12-20T21:18:29.398Z,9.93
2017-12-20T21:20:56.860Z,9.67
2017-12-20T21:23:24.721Z,10.50
2017-12-20T21:25:52.175Z,10.47
2017-12-20T21:28:20.936Z,8.70
2017-12-20T21:30:48.586Z,9.77
2017-12-20T21:33:16.960Z,9.10
2017-12-20T21:35:44.798Z,11.47
2017-12-20T21:38:12.299Z,10.87
2017-12-20T21:40:39.792Z,10.33
2017-12-20T21:43:07.298Z,10.73
2017-12-20T21:45:34.749Z,12.10
2017-12-20T21:48:02.192Z,10.83
2017-12-20T21:50:29.650Z,11.23
2017-12-20T21:52:57.167Z,10.10
2017-12-20T21:55:24.731Z,10.30
2017-12-20T21:57:52.577Z,10.40
2017-12-20T22:00:20.065Z,10.23
2017-12-20T22:02:48.155Z,9.30
2017-12-20T22:05:15.777Z,9.80
2017-12-20T22:07:43.275Z,10.00
2017-12-20T22:10:10.860Z,10.10
2017-12-20T22:12:38.396Z,13.63
2017-12-20T22:15:05.944Z,11.80
2017-12-20T22:17:33.829Z,11.10
2017-12-20T22:20:01.352Z,11.07
2017-12-20T22:22:28.870Z,12.10
2017-12-20T22:24:56.347Z,10.40
2017-12-20T22:27:23.857Z,9.73
2017-12-20T22:29:51.755Z,9.63
2017-12-20T22:32:19.534Z,9.73
2017-12-20T22:34:47.715Z,8.57
2017-12-20T22:37:15.212Z,8.47
2017-12-20T22:39:42.839Z,9.20
2017-12-20T22:42:10.356Z,9.30
2017-12-20T22:44:37.825Z,8.30
2017-12-20T22:47:06.227Z,8.63
2017-12-20T22:49:34.115Z,8.90
2017-12-20T22:52:01.818Z,9.40
2017-12-20T22:54:29.319Z,8.37
2017-12-20T22:56:57.459Z,10.67
2017-12-20T22:59:24.945Z,10.40
2017-12-20T23:01:53.444Z,10.90
2017-12-20T23:04:21.408Z,10.07
2017-12-20T23:06:48.919Z,9.37
2017-12-20T23:09:16.460Z,10.30
2017-12-20T23:11:44.007Z,9.20
2017-12-20T23:14:11.566Z,8.80
2017-12-20T23:16:39.044Z,8.20
2017-12-20T23:19:06.978Z,9.33
2017-12-20T23:21:34.533Z,8.20
2017-12-20T23:24:02.239Z,9.30
2017-12-20T23:26:30.143Z,8.73
2017-12-20T23:28:57.639Z,7.73
2017-12-20T23:31:25.079Z,9.67
2017-12-20T23:33:52.553Z,9.03
2017-12-20T23:36:20.031Z,8.50
2017-12-20T23:38:47.463Z,8.03
2017-12-20T23:41:14.912Z,7.90
2017-12-20T23:43:42.351Z,8.70
2017-12-20T23:46:10.885Z,9.17
2017-12-20T23:48:38.319Z,8.80
2017-12-20T23:51:05.823Z,9.20
2017-12-20T23:53:33.280Z,9.00
2017-12-20T23:56:01.116Z,9.00
2017-12-20T23:58:28.673Z,8.00
